createdAt,value
2018-07-08T00:01:38.770Z,1.40
2018-07-08T00:04:08.234Z,1.50
2018-07-08T00:06:37.596Z,1.57
2018-07-08T00:09:07.358Z,1.20
2018-07-08T00:11:36.793Z,1.40
2018-07-08T00:14:06.236Z,1.23
2018-07-08T00:16:35.373Z,1.37
2018-07-08T00:19:04.748Z,1.12
2018-07-08T00:21:33.997Z,1.30
2018-07-08T00:24:03.211Z,1.27
2018-07-08T00:26:32.441Z,1.40
2018-07-08T00:29:01.613Z,1.40
2018-07-08T00:31:31.168Z,1.20
2018-07-08T00:34:00.499Z,1.20
2018-07-08T00:36:29.796Z,1.27
2018-07-08T00:38:59.168Z,1.40
2018-07-08T00:41:28.316Z,1.20
2018-07-08T00:43:57.493Z,1.17
2018-07-08T00:46:26.836Z,1.30
2018-07-08T00:48:56.105Z,1.35
2018-07-08T00:51:25.371Z,1.52
2018-07-08T00:53:54.633Z,1.75
2018-07-08T00:56:23.877Z,1.30
2018-07-08T00:58:53.149Z,1.60
2018-07-08T01:01:22.297Z,1.40
2018-07-08T01:03:51.469Z,1.32
2018-07-08T01:06:20.612Z,1.35
2018-07-08T01:08:49.794Z,1.52
2018-07-08T01:11:18.865Z,1.30
2018-07-08T01:13:47.989Z,1.30
2018-07-08T01:16:17.249Z,1.60
2018-07-08T01:18:46.527Z,1.20
2018-07-08T01:21:15.781Z,1.45
2018-07-08T01:23:45.156Z,1.40
2018-07-08T01:26:14.769Z,1.42
2018-07-08T01:28:43.997Z,1.45
2018-07-08T01:31:13.584Z,1.60
2018-07-08T01:33:42.688Z,1.25
2018-07-08T01:36:12.066Z,1.62
2018-07-08T01:38:41.281Z,1.55
2018-07-08T01:41:10.596Z,1.60
2018-07-08T01:43:39.956Z,1.40
2018-07-08T01:46:09.065Z,1.50
2018-07-08T01:48:38.324Z,1.65
2018-07-08T01:51:07.499Z,1.52
2018-07-08T01:53:36.844Z,1.50
2018-07-08T01:56:06.116Z,1.70
2018-07-08T01:58:35.468Z,1.37
2018-07-08T02:01:04.840Z,1.40
2018-07-08T02:03:34.164Z,1.40
2018-07-08T02:06:03.613Z,1.40
2018-07-08T02:08:33.032Z,1.50
2018-07-08T02:11:02.725Z,1.40
2018-07-08T02:13:32.159Z,1.50
2018-07-08T02:16:01.665Z,1.20
2018-07-08T02:18:31.108Z,1.67
2018-07-08T02:21:00.377Z,1.62
2018-07-08T02:23:29.600Z,1.50
2018-07-08T02:25:58.893Z,1.60
2018-07-08T02:28:28.548Z,1.50
2018-07-08T02:30:57.824Z,1.60
2018-07-08T02:33:27.288Z,1.42
2018-07-08T02:35:56.497Z,1.50
2018-07-08T02:38:25.892Z,1.40
2018-07-08T02:40:55.125Z,1.52
2018-07-08T02:43:24.343Z,1.50
2018-07-08T02:45:57.026Z,1.80
2018-07-08T02:48:26.758Z,1.70
2018-07-08T02:50:56.107Z,1.50
2018-07-08T02:53:25.361Z,1.70
2018-07-08T02:55:54.634Z,1.80
2018-07-08T02:58:23.840Z,1.67
2018-07-08T03:00:53.206Z,2.20
2018-07-08T03:03:22.485Z,1.43
2018-07-08T03:05:51.817Z,1.60
2018-07-08T03:08:21.091Z,1.47
2018-07-08T03:10:50.446Z,1.85
2018-07-08T03:13:19.620Z,1.70
2018-07-08T03:15:48.769Z,1.60
2018-07-08T03:18:17.828Z,1.60
2018-07-08T03:20:46.957Z,1.60
2018-07-08T03:23:16.364Z,1.70
2018-07-08T03:25:45.712Z,1.52
2018-07-08T03:28:14.978Z,1.92
2018-07-08T03:30:44.320Z,1.47
2018-07-08T03:33:13.520Z,1.40
2018-07-08T03:35:42.625Z,1.55
2018-07-08T03:38:11.921Z,1.67
2018-07-08T03:40:41.268Z,1.80
2018-07-08T03:43:10.692Z,1.77
2018-07-08T03:45:40.272Z,1.45
2018-07-08T03:48:09.584Z,1.90
2018-07-08T03:50:38.828Z,1.57
2018-07-08T03:53:08.050Z,1.80
2018-07-08T03:55:37.448Z,1.80
2018-07-08T03:58:07.096Z,2.22
2018-07-08T04:00:36.379Z,1.62
2018-07-08T04:03:05.859Z,1.92
2018-07-08T04:05:35.130Z,1.70
2018-07-08T04:08:04.442Z,1.67
2018-07-08T04:10:34.001Z,1.77
2018-07-08T04:13:03.485Z,1.70
2018-07-08T04:15:32.869Z,2.00
2018-07-08T04:18:06.427Z,2.02
2018-07-08T04:20:36.140Z,1.72
2018-07-08T04:23:05.420Z,1.83
2018-07-08T04:25:34.800Z,1.90
2018-07-08T04:28:04.560Z,1.80
2018-07-08T04:30:33.969Z,1.82
2018-07-08T04:33:03.448Z,1.67
2018-07-08T04:35:33.318Z,1.90
2018-07-08T04:38:02.784Z,1.87
2018-07-08T04:40:32.484Z,1.82
2018-07-08T04:43:02.087Z,1.70
2018-07-08T04:45:31.739Z,2.00
2018-07-08T04:48:01.128Z,2.00
2018-07-08T04:50:30.501Z,1.95
2018-07-08T04:52:59.848Z,1.90
2018-07-08T04:55:29.172Z,2.40
2018-07-08T04:57:58.665Z,1.65
2018-07-08T05:00:28.284Z,2.08
2018-07-08T05:02:57.498Z,1.75
2018-07-08T05:05:26.912Z,2.00
2018-07-08T05:07:56.220Z,1.87
2018-07-08T05:10:25.300Z,1.75
2018-07-08T05:12:54.532Z,2.10
2018-07-08T05:15:23.960Z,2.10
2018-07-08T05:17:53.189Z,1.70
2018-07-08T05:20:22.525Z,1.73
2018-07-08T05:22:51.897Z,1.72
2018-07-08T05:25:21.109Z,2.27
2018-07-08T05:27:50.369Z,2.05
2018-07-08T05:30:19.419Z,2.03
2018-07-08T05:32:48.585Z,1.97
2018-07-08T05:35:18.288Z,2.12
2018-07-08T05:37:47.427Z,2.27
2018-07-08T05:40:16.661Z,2.05
2018-07-08T05:42:45.740Z,2.10
2018-07-08T05:45:14.989Z,2.20
2018-07-08T05:47:44.174Z,2.12
2018-07-08T05:50:13.635Z,2.30
2018-07-08T05:52:42.988Z,1.90
2018-07-08T05:55:12.341Z,2.12
2018-07-08T05:57:41.588Z,2.00
2018-07-08T06:00:10.875Z,2.10
2018-07-08T06:02:40.133Z,1.73
2018-07-08T06:05:09.491Z,1.90
2018-07-08T06:07:38.707Z,1.90
2018-07-08T06:10:08.229Z,2.00
2018-07-08T06:12:37.736Z,1.45
2018-07-08T06:15:07.042Z,1.80
2018-07-08T06:17:36.463Z,1.80
2018-07-08T06:20:08.337Z,1.70
2018-07-08T06:22:37.583Z,1.85
2018-07-08T06:25:06.955Z,2.00
2018-07-08T06:27:36.424Z,1.57
2018-07-08T06:30:06.424Z,1.75
2018-07-08T06:32:35.744Z,1.72
2018-07-08T06:35:05.032Z,1.70
2018-07-08T06:37:34.419Z,1.87
2018-07-08T06:40:04.097Z,1.83
2018-07-08T06:42:33.485Z,1.42
2018-07-08T06:45:02.899Z,1.60
2018-07-08T06:47:32.104Z,1.80
2018-07-08T06:50:01.262Z,1.75
2018-07-08T06:52:30.501Z,1.85
2018-07-08T06:54:59.686Z,1.90
2018-07-08T06:57:29.041Z,1.80
2018-07-08T06:59:58.408Z,1.60
2018-07-08T07:02:27.660Z,1.60
2018-07-08T07:04:56.849Z,1.40
2018-07-08T07:07:26.172Z,1.55
2018-07-08T07:09:55.353Z,1.75
2018-07-08T07:12:24.600Z,1.60
2018-07-08T07:14:53.665Z,1.42
2018-07-08T07:17:22.839Z,1.60
2018-07-08T07:19:52.212Z,1.42
2018-07-08T07:22:21.654Z,1.60
2018-07-08T07:24:51.040Z,1.50
2018-07-08T07:27:20.389Z,1.60
2018-07-08T07:29:49.576Z,1.30
2018-07-08T07:32:18.828Z,1.30
2018-07-08T07:34:48.160Z,1.80
2018-07-08T07:37:17.874Z,1.40
2018-07-08T07:39:47.378Z,1.40
2018-07-08T07:42:16.728Z,1.80
2018-07-08T07:44:47.240Z,1.40
2018-07-08T07:47:17.824Z,1.40
2018-07-08T07:49:47.375Z,1.22
2018-07-08T07:52:17.118Z,1.45
2018-07-08T07:54:46.705Z,1.40
2018-07-08T07:57:16.212Z,1.40
2018-07-08T07:59:45.628Z,1.60
2018-07-08T08:02:16.822Z,1.10
2018-07-08T08:04:46.414Z,1.30
2018-07-08T08:07:16.641Z,1.55
2018-07-08T08:09:47.040Z,1.30
2018-07-08T08:12:16.625Z,1.60
2018-07-08T08:14:46.321Z,1.47
2018-07-08T08:17:17.151Z,1.35
2018-07-08T08:19:47.517Z,1.40
2018-07-08T08:22:17.186Z,1.30
2018-07-08T08:24:46.757Z,1.27
2018-07-08T08:27:15.958Z,1.30
2018-07-08T08:29:45.212Z,1.10
2018-07-08T08:32:15.072Z,1.25
2018-07-08T08:34:52.383Z,1.02
2018-07-08T08:37:23.416Z,1.20
2018-07-08T08:39:53.440Z,1.02
2018-07-08T08:42:22.812Z,1.07
2018-07-08T08:44:52.766Z,1.20
2018-07-08T08:47:22.597Z,1.55
2018-07-08T08:49:52.577Z,1.17
2018-07-08T08:52:21.921Z,1.03
2018-07-08T08:54:51.785Z,1.05
2018-07-08T08:57:21.360Z,1.00
2018-07-08T08:59:51.233Z,0.90
2018-07-08T09:02:21.119Z,1.22
2018-07-08T09:04:50.960Z,1.20
2018-07-08T09:07:21.456Z,0.88
2018-07-08T09:09:51.288Z,1.07
2018-07-08T09:12:21.053Z,0.90
2018-07-08T09:14:50.429Z,1.20
2018-07-08T09:17:19.393Z,1.00
2018-07-08T09:19:49.080Z,1.00
2018-07-08T09:22:18.570Z,1.02
2018-07-08T09:24:48.176Z,1.15
2018-07-08T09:27:17.596Z,1.20
2018-07-08T09:29:47.239Z,1.10
2018-07-08T09:32:16.896Z,1.30
2018-07-08T09:34:46.417Z,1.27
2018-07-08T09:37:16.003Z,1.37
2018-07-08T09:39:45.521Z,1.52
2018-07-08T09:42:15.326Z,1.62
2018-07-08T09:44:44.989Z,1.43
2018-07-08T09:47:14.361Z,1.20
2018-07-08T09:49:44.053Z,1.32
2018-07-08T09:52:13.525Z,1.40
2018-07-08T09:54:43.102Z,1.12
2018-07-08T09:57:12.941Z,1.30
2018-07-08T09:59:42.239Z,1.12
2018-07-08T10:02:11.477Z,1.50
2018-07-08T10:04:41.139Z,1.45
2018-07-08T10:07:10.572Z,1.30
2018-07-08T10:09:39.783Z,1.50
2018-07-08T10:12:09.183Z,1.30
2018-07-08T10:14:38.729Z,1.20
2018-07-08T10:17:08.405Z,1.20
2018-07-08T10:19:38.424Z,1.40
2018-07-08T10:22:09.150Z,1.42
2018-07-08T10:24:39.854Z,1.27
2018-07-08T10:28:16.428Z,1.20
2018-07-08T10:30:46.023Z,1.37
2018-07-08T10:33:15.721Z,1.60
2018-07-08T10:35:58.196Z,1.57
2018-07-08T10:38:27.437Z,1.60
2018-07-08T10:40:56.776Z,1.67
2018-07-08T10:43:26.484Z,1.30
2018-07-08T10:45:56.019Z,1.53
2018-07-08T10:48:25.356Z,1.45
2018-07-08T10:50:54.612Z,1.50
2018-07-08T10:53:23.798Z,1.30
2018-07-08T10:55:53.241Z,1.35
2018-07-08T10:58:22.817Z,1.20
2018-07-08T11:00:52.386Z,1.40
2018-07-08T11:03:21.956Z,1.40
2018-07-08T11:05:51.647Z,1.35
2018-07-08T11:08:21.044Z,1.25
2018-07-08T11:10:51.506Z,1.20
2018-07-08T11:13:20.961Z,1.30
2018-07-08T11:15:50.513Z,1.50
2018-07-08T11:18:20.137Z,1.70
2018-07-08T11:20:49.950Z,1.30
2018-07-08T11:23:19.598Z,1.50
2018-07-08T11:25:49.194Z,1.35
2018-07-08T11:28:18.696Z,1.40
2018-07-08T11:30:48.267Z,1.60
2018-07-08T11:33:17.670Z,1.70
2018-07-08T11:35:47.115Z,1.50
2018-07-08T11:38:17.021Z,1.40
2018-07-08T11:40:47.857Z,1.50
2018-07-08T11:43:17.267Z,1.62
2018-07-08T11:45:46.306Z,1.75
2018-07-08T11:48:15.804Z,1.50
2018-07-08T11:50:45.280Z,1.30
2018-07-08T11:53:14.473Z,1.17
2018-07-08T11:55:44.583Z,1.17
2018-07-08T11:58:13.994Z,1.10
2018-07-08T12:00:43.581Z,1.22
2018-07-08T12:03:12.736Z,1.42
2018-07-08T12:05:42.262Z,1.07
2018-07-08T12:08:11.702Z,1.12
2018-07-08T12:10:41.023Z,1.37
2018-07-08T12:13:10.312Z,1.35
2018-07-08T12:15:39.589Z,1.40
2018-07-08T12:18:09.303Z,1.70
2018-07-08T12:20:39.501Z,1.30
2018-07-08T12:23:08.803Z,1.30
2018-07-08T12:25:38.093Z,1.50
2018-07-08T12:28:07.471Z,1.30
2018-07-08T12:30:36.787Z,1.20
2018-07-08T12:33:06.622Z,1.45
2018-07-08T12:35:35.962Z,1.20
2018-07-08T12:38:06.229Z,1.02
2018-07-08T12:40:36.075Z,1.50
2018-07-08T12:43:05.245Z,1.40
2018-07-08T12:45:34.564Z,1.40
2018-07-08T12:48:03.760Z,1.30
2018-07-08T12:50:33.052Z,1.33
2018-07-08T12:53:02.392Z,1.30
2018-07-08T12:55:31.725Z,1.40
2018-07-08T12:58:01.027Z,1.50
2018-07-08T13:00:30.169Z,1.22
2018-07-08T13:02:59.345Z,1.30
2018-07-08T13:05:28.729Z,1.10
2018-07-08T13:07:57.964Z,1.20
2018-07-08T13:10:27.353Z,1.22
2018-07-08T13:12:56.723Z,1.25
2018-07-08T13:15:26.267Z,1.13
2018-07-08T13:17:55.633Z,1.05
2018-07-08T13:20:24.915Z,1.20
2018-07-08T13:22:54.353Z,1.22
2018-07-08T13:25:23.643Z,1.25
2018-07-08T13:27:53.077Z,1.10
2018-07-08T13:30:22.658Z,1.27
2018-07-08T13:32:52.020Z,1.30
2018-07-08T13:35:21.360Z,1.40
2018-07-08T13:37:50.761Z,1.20
2018-07-08T13:40:20.391Z,1.22
2018-07-08T13:42:49.909Z,1.00
2018-07-08T13:45:19.864Z,1.15
2018-07-08T13:47:49.333Z,1.30
2018-07-08T13:50:19.280Z,1.20
2018-07-08T13:52:49.215Z,1.10
2018-07-08T13:55:19.366Z,1.30
2018-07-08T13:57:49.211Z,1.00
2018-07-08T14:00:18.904Z,1.10
2018-07-08T14:02:48.761Z,0.90
2018-07-08T14:05:19.333Z,0.93
2018-07-08T14:07:48.818Z,1.10
2018-07-08T14:10:18.741Z,1.10
2018-07-08T14:12:49.149Z,1.30
2018-07-08T14:15:18.957Z,1.10
2018-07-08T14:17:48.639Z,1.05
2018-07-08T14:20:18.090Z,1.30
2018-07-08T14:22:48.207Z,1.10
2018-07-08T14:25:18.353Z,1.10
2018-07-08T14:27:47.565Z,1.10
2018-07-08T14:30:17.471Z,1.07
2018-07-08T14:32:47.470Z,1.30
2018-07-08T14:35:17.339Z,1.10
2018-07-08T14:37:47.300Z,1.00
2018-07-08T14:40:17.400Z,1.13
2018-07-08T14:42:47.127Z,0.90
2018-07-08T14:45:16.706Z,0.90
2018-07-08T14:47:46.378Z,1.00
2018-07-08T14:50:16.013Z,0.83
2018-07-08T14:52:45.791Z,1.10
2018-07-08T14:55:15.331Z,1.00
2018-07-08T14:57:44.801Z,1.05
2018-07-08T15:00:17.729Z,1.10
2018-07-08T15:02:47.312Z,1.17
2018-07-08T15:05:16.989Z,1.17
2018-07-08T15:07:46.791Z,1.10
2018-07-08T15:10:16.535Z,1.12
2018-07-08T15:12:45.989Z,1.07
2018-07-08T15:15:15.880Z,1.10
2018-07-08T15:17:45.842Z,1.00
2018-07-08T15:20:15.241Z,1.20
2018-07-08T15:22:44.844Z,0.82
2018-07-08T15:25:14.345Z,1.00
2018-07-08T15:27:44.076Z,1.10
2018-07-08T15:30:13.562Z,1.05
2018-07-08T15:32:43.285Z,1.00
2018-07-08T15:35:12.894Z,1.05
2018-07-08T15:37:42.499Z,1.20
2018-07-08T15:40:11.913Z,1.20
2018-07-08T15:42:41.707Z,1.10
2018-07-08T15:45:11.109Z,1.00
2018-07-08T15:47:40.572Z,1.07
2018-07-08T15:50:10.043Z,0.90
2018-07-08T15:52:39.216Z,0.95
2018-07-08T15:55:08.787Z,1.00
2018-07-08T15:57:38.268Z,1.20
2018-07-08T16:00:07.523Z,1.00
2018-07-08T16:02:36.804Z,0.85
2018-07-08T16:05:06.061Z,1.00
2018-07-08T16:07:35.704Z,1.10
2018-07-08T16:10:05.113Z,0.98
2018-07-08T16:12:34.589Z,1.02
2018-07-08T16:15:04.242Z,1.00
2018-07-08T16:17:33.865Z,1.00
2018-07-08T16:20:03.788Z,1.10
2018-07-08T16:22:33.180Z,1.10
2018-07-08T16:25:02.497Z,1.00
2018-07-08T16:27:32.208Z,0.90
2018-07-08T16:30:01.623Z,1.10
2018-07-08T16:32:30.805Z,1.10
2018-07-08T16:35:00.123Z,1.30
2018-07-08T16:37:29.672Z,1.00
2018-07-08T16:39:59.176Z,0.90
2018-07-08T16:42:28.388Z,1.02
2018-07-08T16:44:57.735Z,1.00
2018-07-08T16:47:26.992Z,0.90
2018-07-08T16:49:56.444Z,1.10
2018-07-08T16:52:25.953Z,1.00
2018-07-08T16:54:55.204Z,0.82
2018-07-08T16:57:24.369Z,1.10
2018-07-08T16:59:53.828Z,0.93
2018-07-08T17:02:23.218Z,0.90
2018-07-08T17:04:52.716Z,0.80
2018-07-08T17:07:22.144Z,0.80
2018-07-08T17:09:51.396Z,0.80
2018-07-08T17:12:20.760Z,0.72
2018-07-08T17:14:50.275Z,0.80
2018-07-08T17:17:19.748Z,0.70
2018-07-08T17:19:49.305Z,0.88
2018-07-08T17:22:18.801Z,0.80
2018-07-08T17:24:48.192Z,0.93
2018-07-08T17:27:17.725Z,0.98
2018-07-08T17:29:47.279Z,0.70
2018-07-08T17:32:16.742Z,0.88
2018-07-08T17:34:46.193Z,0.90
2018-07-08T17:37:15.859Z,0.93
2018-07-08T17:39:45.350Z,0.90
2018-07-08T17:42:14.708Z,0.80
2018-07-08T17:44:44.173Z,0.90
2018-07-08T17:47:14.157Z,0.80
2018-07-08T17:49:43.662Z,1.00
2018-07-08T17:52:13.251Z,0.98
2018-07-08T17:54:42.784Z,0.90
2018-07-08T17:57:12.467Z,0.80
2018-07-08T17:59:41.901Z,1.00
2018-07-08T18:02:11.428Z,1.00
2018-07-08T18:04:40.833Z,0.80
2018-07-08T18:07:10.352Z,0.80
2018-07-08T18:09:39.699Z,1.02
2018-07-08T18:12:09.170Z,0.70
2018-07-08T18:14:38.360Z,1.00
2018-07-08T18:17:07.424Z,1.00
2018-07-08T18:19:37.006Z,0.90
2018-07-08T18:22:06.437Z,0.93
2018-07-08T18:24:35.923Z,0.93
2018-07-08T18:27:05.217Z,0.98
2018-07-08T18:29:34.664Z,1.17
2018-07-08T18:32:03.933Z,0.95
2018-07-08T18:34:33.380Z,1.00
2018-07-08T18:37:02.737Z,0.80
2018-07-08T18:39:32.164Z,1.00
2018-07-08T18:42:01.541Z,1.20
2018-07-08T18:44:30.984Z,1.12
2018-07-08T18:47:00.193Z,1.02
2018-07-08T18:49:29.710Z,0.98
2018-07-08T18:51:59.133Z,1.00
2018-07-08T18:54:28.444Z,0.90
2018-07-08T18:56:57.761Z,1.00
2018-07-08T18:59:27.304Z,1.12
2018-07-08T19:01:56.992Z,1.00
2018-07-08T19:04:26.272Z,0.88
2018-07-08T19:06:55.593Z,0.80
2018-07-08T19:09:25.100Z,0.90
2018-07-08T19:11:54.710Z,1.00
2018-07-08T19:14:24.201Z,1.00
2018-07-08T19:16:53.640Z,1.00
2018-07-08T19:19:22.963Z,0.90
2018-07-08T19:21:52.384Z,0.90
2018-07-08T19:24:21.688Z,1.00
2018-07-08T19:26:51.016Z,0.90
2018-07-08T19:29:20.192Z,0.98
2018-07-08T19:31:49.640Z,0.90
2018-07-08T19:34:19.080Z,0.93
2018-07-08T19:36:48.486Z,1.10
2018-07-08T19:39:17.752Z,0.90
2018-07-08T19:41:47.005Z,0.80
2018-07-08T19:44:16.169Z,0.90
2018-07-08T19:46:45.524Z,1.10
2018-07-08T19:49:14.745Z,1.10
2018-07-08T19:51:43.941Z,1.40
2018-07-08T19:54:13.223Z,1.50
2018-07-08T19:56:42.677Z,1.80
2018-07-08T19:59:11.927Z,1.72
2018-07-08T20:01:41.510Z,1.80
2018-07-08T20:04:10.781Z,1.80
2018-07-08T20:06:40.081Z,1.60
2018-07-08T20:09:09.404Z,1.70
2018-07-08T20:11:38.869Z,1.40
2018-07-08T20:14:08.042Z,1.10
2018-07-08T20:16:37.352Z,1.20
2018-07-08T20:19:06.591Z,1.17
2018-07-08T20:21:35.948Z,1.27
2018-07-08T20:24:05.172Z,1.20
2018-07-08T20:26:34.396Z,1.20
2018-07-08T20:29:04.300Z,1.30
2018-07-08T20:31:33.502Z,1.20
2018-07-08T20:34:02.825Z,1.10
2018-07-08T20:36:31.976Z,1.20
2018-07-08T20:39:01.637Z,1.10
2018-07-08T20:41:30.817Z,1.10
2018-07-08T20:44:00.272Z,1.30
2018-07-08T20:46:29.836Z,1.20
2018-07-08T20:48:59.196Z,1.10
2018-07-08T20:51:28.485Z,1.17
2018-07-08T20:53:57.831Z,1.30
2018-07-08T20:56:27.209Z,1.40
2018-07-08T20:58:56.544Z,1.37
2018-07-08T21:01:25.828Z,1.45
2018-07-08T21:03:55.284Z,1.30
2018-07-08T21:06:24.571Z,1.35
2018-07-08T21:08:53.915Z,1.50
2018-07-08T21:11:23.057Z,1.40
2018-07-08T21:13:52.446Z,1.20
2018-07-08T21:16:21.700Z,1.37
2018-07-08T21:18:50.953Z,1.40
2018-07-08T21:21:20.364Z,1.40
2018-07-08T21:23:50.080Z,1.45
2018-07-08T21:26:19.296Z,1.50
2018-07-08T21:28:48.456Z,1.40
2018-07-08T21:31:17.647Z,1.60
2018-07-08T21:33:46.778Z,1.40
2018-07-08T21:36:16.127Z,1.37
2018-07-08T21:38:45.400Z,1.42
2018-07-08T21:41:14.648Z,1.30
2018-07-08T21:43:44.133Z,1.40
2018-07-08T21:46:13.592Z,1.40
2018-07-08T21:48:42.977Z,1.30
2018-07-08T21:51:12.808Z,1.33
2018-07-08T21:53:42.105Z,1.45
2018-07-08T21:56:11.336Z,1.30
2018-07-08T21:58:40.635Z,1.40
2018-07-08T22:01:16.949Z,1.40
2018-07-08T22:03:46.768Z,1.52
2018-07-08T22:06:16.861Z,1.50
2018-07-08T22:08:46.278Z,1.30
2018-07-08T22:11:15.619Z,1.65
2018-07-08T22:13:45.061Z,1.50
2018-07-08T22:16:15.276Z,1.67
2018-07-08T22:18:44.440Z,1.35
2018-07-08T22:21:13.779Z,1.57
2018-07-08T22:23:43.144Z,1.43
2018-07-08T22:26:12.367Z,1.72
2018-07-08T22:28:41.632Z,1.50
2018-07-08T22:31:10.968Z,1.40
2018-07-08T22:33:40.388Z,1.30
2018-07-08T22:36:10.189Z,1.40
2018-07-08T22:38:39.967Z,1.30
2018-07-08T22:41:09.220Z,1.10
2018-07-08T22:43:39.025Z,1.30
2018-07-08T22:46:08.605Z,1.50
2018-07-08T22:48:38.137Z,1.20
2018-07-08T22:51:07.440Z,1.25
2018-07-08T22:53:36.701Z,1.40
2018-07-08T22:56:05.920Z,1.40
2018-07-08T22:58:35.671Z,1.52
2018-07-08T23:01:16.028Z,1.27
2018-07-08T23:03:48.297Z,1.27
2018-07-08T23:06:18.794Z,1.32
2018-07-08T23:08:48.756Z,1.30
2018-07-08T23:11:17.980Z,1.27
2018-07-08T23:13:48.103Z,1.37
2018-07-08T23:16:17.460Z,1.40
2018-07-08T23:18:46.762Z,1.25
2018-07-08T23:21:15.952Z,1.10
2018-07-08T23:23:45.286Z,1.30
2018-07-08T23:26:14.557Z,1.47
2018-07-08T23:28:43.796Z,1.20
2018-07-08T23:31:13.487Z,1.30
2018-07-08T23:33:42.845Z,1.37
2018-07-08T23:36:12.473Z,1.27
2018-07-08T23:38:41.884Z,1.25
2018-07-08T23:41:11.814Z,1.32
2018-07-08T23:43:41.009Z,1.37
2018-07-08T23:46:10.134Z,1.50
2018-07-08T23:48:39.221Z,1.40
2018-07-08T23:51:08.427Z,1.50
2018-07-08T23:53:37.920Z,1.35
2018-07-08T23:56:07.171Z,1.40
2018-07-08T23:58:36.361Z,1.30
